createdAt,value
2022-12-18T00:01:49.736Z,16.50
2022-12-18T00:04:24.050Z,15.73
2022-12-18T00:06:54.179Z,17.48
2022-12-18T00:09:21.671Z,13.93
2022-12-18T00:11:59.046Z,14.95
2022-12-18T00:14:29.855Z,17.15
2022-12-18T00:17:04.647Z,17.13
2022-12-18T00:22:21.584Z,17.08
2022-12-18T00:24:48.326Z,16.42
2022-12-18T00:27:24.025Z,16.45
2022-12-18T00:29:50.800Z,17.00
2022-12-18T00:32:17.721Z,17.25
2022-12-18T00:34:44.888Z,18.05
2022-12-18T00:37:14.472Z,17.58
2022-12-18T00:39:45.665Z,16.05
2022-12-18T00:42:26.167Z,26.30
2022-12-18T00:44:52.987Z,20.15
2022-12-18T00:47:19.623Z,19.75
2022-12-18T00:49:46.200Z,21.55
2022-12-18T00:52:12.920Z,16.52
2022-12-18T00:54:39.477Z,17.08
2022-12-18T00:57:06.208Z,17.80
2022-12-18T00:59:35.888Z,16.38
2022-12-18T01:02:02.635Z,16.27
2022-12-18T01:04:33.258Z,17.38
2022-12-18T01:06:59.789Z,16.00
2022-12-18T01:09:29.998Z,13.60
2022-12-18T01:11:58.567Z,16.20
2022-12-18T01:14:25.716Z,16.80
2022-12-18T01:16:52.458Z,16.00
2022-12-18T01:19:19.211Z,16.77
2022-12-18T01:21:49.360Z,15.75
2022-12-18T01:24:16.188Z,16.00
2022-12-18T01:26:42.932Z,15.82
2022-12-18T01:29:09.547Z,16.55
2022-12-18T01:31:36.424Z,14.18
2022-12-18T01:34:04.282Z,16.27
2022-12-18T01:36:34.867Z,17.92
2022-12-18T01:39:02.486Z,17.38
2022-12-18T01:41:43.748Z,15.25
2022-12-18T01:44:24.211Z,15.85
2022-12-18T01:46:50.982Z,17.13
2022-12-18T01:49:17.714Z,14.23
2022-12-18T01:51:44.276Z,16.08
2022-12-18T01:54:10.905Z,14.20
2022-12-18T01:56:37.961Z,14.85
2022-12-18T01:59:07.105Z,15.70
2022-12-18T02:01:34.204Z,14.48
2022-12-18T02:04:14.840Z,15.20
2022-12-18T02:06:45.180Z,15.70
2022-12-18T02:09:13.665Z,16.15
2022-12-18T02:11:40.677Z,15.25
2022-12-18T02:14:07.974Z,16.70
2022-12-18T02:16:47.948Z,16.83
2022-12-18T02:19:27.679Z,14.95
2022-12-18T02:22:20.491Z,13.95
2022-12-18T02:25:01.111Z,15.15
2022-12-18T02:27:29.244Z,15.80
2022-12-18T02:29:58.783Z,15.50
2022-12-18T02:32:28.307Z,14.30
2022-12-18T02:34:56.870Z,15.57
2022-12-18T02:37:24.452Z,15.60
2022-12-18T02:39:53.996Z,15.85
2022-12-18T02:42:21.070Z,16.65
2022-12-18T02:44:49.094Z,16.65
2022-12-18T02:47:18.049Z,15.77
2022-12-18T02:49:44.791Z,14.75
2022-12-18T02:52:31.682Z,17.08
2022-12-18T02:55:08.894Z,16.45
2022-12-18T02:57:35.963Z,15.25
2022-12-18T03:00:05.626Z,15.38
2022-12-18T03:02:38.773Z,16.40
2022-12-18T03:05:08.577Z,15.90
2022-12-18T03:07:40.420Z,16.02
2022-12-18T03:10:08.058Z,14.93
2022-12-18T03:12:41.469Z,15.63
2022-12-18T03:15:17.863Z,17.95
2022-12-18T03:17:47.434Z,14.02
2022-12-18T03:20:16.022Z,16.50
2022-12-18T03:22:44.249Z,17.00
2022-12-18T03:25:20.586Z,16.85
2022-12-18T03:27:51.795Z,15.93
2022-12-18T03:30:19.038Z,14.35
2022-12-18T03:33:00.095Z,16.13
2022-12-18T03:35:29.628Z,17.63
2022-12-18T03:37:56.558Z,18.05
2022-12-18T03:40:28.004Z,15.38
2022-12-18T03:43:00.938Z,15.73
2022-12-18T03:45:39.524Z,17.80
2022-12-18T03:48:10.355Z,15.48
2022-12-18T03:50:42.768Z,14.77
2022-12-18T03:53:09.448Z,16.42
2022-12-18T03:55:36.760Z,16.25
2022-12-18T03:58:05.678Z,16.95
2022-12-18T04:00:32.881Z,15.50
2022-12-18T04:03:01.313Z,16.83
2022-12-18T04:05:28.779Z,16.73
2022-12-18T04:07:56.083Z,18.67
2022-12-18T04:10:23.207Z,17.17
2022-12-18T04:12:49.812Z,17.70
2022-12-18T04:15:16.666Z,15.70
2022-12-18T04:17:48.158Z,15.23
2022-12-18T04:20:14.808Z,17.40
2022-12-18T04:22:41.436Z,16.27
2022-12-18T04:25:08.387Z,17.63
2022-12-18T04:27:44.160Z,16.48
2022-12-18T04:30:11.132Z,15.82
2022-12-18T04:32:37.771Z,16.17
2022-12-18T04:35:05.287Z,16.88
2022-12-18T04:37:32.147Z,16.67
2022-12-18T04:39:58.717Z,16.45
2022-12-18T04:42:25.425Z,16.63
2022-12-18T04:44:52.203Z,16.67
2022-12-18T04:47:18.830Z,16.25
2022-12-18T04:49:45.449Z,17.23
2022-12-18T04:52:12.552Z,16.80
2022-12-18T04:54:39.319Z,16.52
2022-12-18T04:57:06.039Z,15.45
2022-12-18T04:59:32.712Z,15.52
2022-12-18T05:01:59.638Z,16.52
2022-12-18T05:04:26.536Z,15.27
2022-12-18T05:06:53.161Z,16.20
2022-12-18T05:09:19.812Z,15.52
2022-12-18T05:11:57.859Z,17.00
2022-12-18T05:14:24.592Z,16.42
2022-12-18T05:16:51.255Z,15.88
2022-12-18T05:19:17.871Z,15.75
2022-12-18T05:21:44.387Z,16.50
2022-12-18T05:24:12.682Z,17.55
2022-12-18T05:26:39.306Z,16.00
2022-12-18T05:29:06.147Z,15.90
2022-12-18T05:31:38.927Z,16.45
2022-12-18T05:34:06.989Z,17.07
2022-12-18T05:36:33.779Z,17.02
2022-12-18T05:39:01.371Z,15.68
2022-12-18T05:41:28.633Z,16.25
2022-12-18T05:43:55.251Z,16.85
2022-12-18T05:46:22.210Z,17.15
2022-12-18T05:48:49.437Z,15.82
2022-12-18T05:51:17.179Z,16.77
2022-12-18T05:53:44.487Z,17.40
2022-12-18T05:56:13.562Z,18.60
2022-12-18T05:58:40.205Z,16.83
2022-12-18T06:01:11.214Z,17.20
2022-12-18T06:03:38.223Z,15.93
2022-12-18T06:06:05.134Z,15.70
2022-12-18T06:08:31.966Z,17.13
2022-12-18T06:10:58.727Z,14.80
2022-12-18T06:13:25.343Z,16.08
2022-12-18T06:15:52.062Z,16.52
2022-12-18T06:18:18.723Z,16.98
2022-12-18T06:20:46.088Z,16.88
2022-12-18T06:23:13.318Z,18.55
2022-12-18T06:25:40.494Z,15.57
2022-12-18T06:28:07.156Z,17.10
2022-12-18T06:30:33.938Z,15.48
2022-12-18T06:33:00.712Z,13.38
2022-12-18T06:35:27.306Z,17.13
2022-12-18T06:37:53.925Z,17.48
2022-12-18T06:40:20.826Z,17.05
2022-12-18T06:42:47.590Z,16.13
2022-12-18T06:45:17.445Z,18.15
2022-12-18T06:47:44.311Z,19.83
2022-12-18T06:50:11.120Z,19.02
2022-12-18T06:52:38.058Z,21.00
2022-12-18T06:55:04.989Z,18.05
2022-12-18T06:57:31.584Z,19.92
2022-12-18T06:59:58.264Z,18.40
2022-12-18T07:02:25.503Z,18.48
2022-12-18T07:04:52.536Z,17.83
2022-12-18T07:07:19.451Z,16.90
2022-12-18T07:09:46.114Z,22.00
2022-12-18T07:12:13.045Z,20.08
2022-12-18T07:14:39.855Z,17.58
2022-12-18T07:17:06.773Z,17.20
2022-12-18T07:19:33.542Z,17.30
2022-12-18T07:22:00.131Z,17.63
2022-12-18T07:24:27.022Z,21.85
2022-12-18T07:26:53.984Z,22.25
2022-12-18T07:29:20.746Z,19.60
2022-12-18T07:31:47.480Z,17.65
2022-12-18T07:34:14.953Z,31.35
2022-12-18T07:36:42.041Z,29.85
2022-12-18T07:39:09.090Z,21.60
2022-12-18T07:41:35.812Z,70.50
2022-12-18T07:44:02.509Z,23.65
2022-12-18T07:46:29.269Z,30.63
2022-12-18T07:48:55.955Z,47.33
2022-12-18T07:51:22.571Z,61.92
2022-12-18T07:53:49.688Z,43.45
2022-12-18T07:56:27.074Z,37.45
2022-12-18T07:58:55.292Z,29.95
2022-12-18T08:01:24.579Z,30.80
2022-12-18T08:04:00.953Z,29.80
2022-12-18T08:06:27.986Z,37.38
2022-12-18T08:09:02.961Z,28.00
2022-12-18T08:11:30.044Z,26.35
2022-12-18T08:13:57.142Z,28.60
2022-12-18T08:16:26.712Z,25.35
2022-12-18T08:18:54.395Z,29.33
2022-12-18T08:21:30.858Z,35.08
2022-12-18T08:23:58.879Z,27.33
2022-12-18T08:26:26.349Z,31.02
2022-12-18T08:28:54.375Z,30.25
2022-12-18T08:31:21.274Z,39.42
2022-12-18T08:33:52.302Z,27.08
2022-12-18T08:36:20.148Z,23.63
2022-12-18T08:38:47.168Z,22.02
2022-12-18T08:41:14.993Z,27.48
2022-12-18T08:43:55.760Z,20.83
2022-12-18T08:46:23.510Z,22.45
2022-12-18T08:48:52.042Z,27.05
2022-12-18T08:51:19.219Z,26.42
2022-12-18T08:53:46.000Z,30.02
2022-12-18T08:56:13.333Z,27.73
2022-12-18T08:58:40.176Z,27.17
2022-12-18T09:01:08.196Z,25.92
2022-12-18T09:03:35.066Z,22.20
2022-12-18T09:06:02.588Z,22.20
2022-12-18T09:08:29.693Z,23.20
2022-12-18T09:10:56.702Z,23.90
2022-12-18T09:13:23.801Z,36.15
2022-12-18T09:15:52.397Z,29.88
2022-12-18T09:18:20.045Z,24.27
2022-12-18T09:20:56.535Z,18.20
2022-12-18T09:23:23.243Z,19.58
2022-12-18T09:26:02.563Z,20.85
2022-12-18T09:31:20.650Z,23.10
2022-12-18T09:33:56.233Z,20.23
2022-12-18T09:36:23.151Z,16.88
2022-12-18T09:38:50.019Z,18.48
2022-12-18T09:41:19.527Z,17.95
2022-12-18T09:43:48.638Z,19.80
2022-12-18T09:46:44.703Z,20.83
2022-12-18T09:49:14.724Z,20.92
2022-12-18T09:51:45.687Z,21.17
2022-12-18T09:54:17.771Z,25.20
2022-12-18T09:56:44.817Z,20.73
2022-12-18T09:59:31.933Z,24.80
2022-12-18T10:02:02.040Z,24.00
2022-12-18T10:04:34.696Z,22.15
2022-12-18T10:07:26.225Z,24.60
2022-12-18T10:09:57.865Z,24.08
2022-12-18T10:15:31.690Z,26.75
2022-12-18T10:18:04.389Z,26.83
2022-12-18T10:20:40.223Z,21.13
2022-12-18T10:23:17.338Z,17.25
2022-12-18T10:26:02.242Z,24.08
2022-12-18T10:28:39.526Z,27.00
2022-12-18T10:31:10.039Z,26.73
2022-12-18T10:33:36.969Z,25.02
2022-12-18T10:36:36.651Z,22.95
2022-12-18T10:39:20.035Z,19.85
2022-12-18T10:42:08.470Z,21.08
2022-12-18T10:44:59.850Z,21.98
2022-12-18T10:47:32.440Z,23.10
2022-12-18T10:49:59.911Z,20.35
2022-12-18T10:52:27.208Z,21.55
2022-12-18T10:54:59.711Z,18.02
2022-12-18T11:00:25.892Z,33.08
2022-12-18T11:02:53.296Z,59.55
2022-12-18T11:05:54.953Z,27.63
2022-12-18T11:08:27.823Z,56.15
2022-12-18T11:10:54.662Z,37.38
2022-12-18T11:13:23.058Z,23.52
2022-12-18T11:15:53.376Z,36.85
2022-12-18T11:18:23.548Z,35.10
2022-12-18T11:20:58.885Z,43.28
2022-12-18T11:23:26.593Z,34.05
2022-12-18T11:26:11.482Z,34.95
2022-12-18T11:28:42.591Z,60.17
2022-12-18T11:31:16.007Z,23.65
2022-12-18T11:33:58.681Z,22.55
2022-12-18T11:36:42.045Z,23.75
2022-12-18T11:39:34.854Z,18.95
2022-12-18T11:45:11.290Z,27.27
2022-12-18T11:47:54.814Z,22.70
2022-12-18T11:50:38.152Z,25.70
2022-12-18T11:53:06.351Z,23.83
2022-12-18T11:55:48.728Z,27.33
2022-12-18T11:58:33.834Z,30.25
2022-12-18T12:03:41.913Z,20.27
2022-12-18T12:06:21.266Z,19.13
2022-12-18T12:09:01.942Z,19.17
2022-12-18T12:11:35.135Z,26.60
2022-12-18T12:14:19.980Z,22.30
2022-12-18T12:17:11.818Z,37.28
2022-12-18T12:19:55.431Z,26.75
2022-12-18T12:22:36.829Z,44.47
2022-12-18T12:25:40.674Z,50.97
2022-12-18T12:28:35.143Z,24.90
2022-12-18T12:34:06.702Z,45.00
2022-12-18T12:36:34.414Z,23.92
2022-12-18T12:39:02.933Z,22.88
2022-12-18T12:41:47.254Z,19.67
2022-12-18T12:44:25.256Z,26.58
2022-12-18T12:46:53.573Z,35.65
2022-12-18T12:49:23.315Z,28.92
2022-12-18T12:52:13.178Z,19.92
2022-12-18T12:54:40.304Z,21.75
2022-12-18T12:57:11.546Z,28.67
2022-12-18T12:59:42.032Z,25.23
2022-12-18T13:02:22.922Z,30.85
2022-12-18T13:05:05.943Z,20.48
2022-12-18T13:07:32.607Z,24.38
2022-12-18T13:10:15.473Z,23.23
2022-12-18T13:12:58.600Z,27.52
2022-12-18T13:15:28.036Z,29.75
2022-12-18T13:18:05.097Z,34.72
2022-12-18T13:20:36.394Z,30.13
2022-12-18T13:23:21.128Z,22.42
2022-12-18T13:25:49.098Z,17.02
2022-12-18T13:28:26.249Z,17.08
2022-12-18T13:30:57.575Z,25.00
2022-12-18T13:33:25.019Z,21.27
2022-12-18T13:35:51.884Z,24.83
2022-12-18T13:38:33.660Z,27.08
2022-12-18T13:41:01.673Z,28.35
2022-12-18T13:43:34.285Z,25.25
2022-12-18T13:46:27.340Z,20.88
2022-12-18T13:48:57.046Z,22.45
2022-12-18T13:51:24.340Z,26.05
2022-12-18T13:53:53.327Z,25.90
2022-12-18T13:56:23.510Z,25.52
2022-12-18T13:59:04.769Z,20.73
2022-12-18T14:01:46.629Z,27.20
2022-12-18T14:04:19.204Z,25.20
2022-12-18T14:06:46.672Z,25.25
2022-12-18T14:09:21.497Z,23.50
2022-12-18T14:11:49.829Z,18.40
2022-12-18T14:14:17.674Z,17.92
2022-12-18T14:16:44.492Z,24.38
2022-12-18T14:19:19.015Z,23.83
2022-12-18T14:21:49.510Z,33.22
2022-12-18T14:24:19.764Z,31.67
2022-12-18T14:26:47.867Z,29.67
2022-12-18T14:29:19.569Z,22.33
2022-12-18T14:31:47.436Z,33.03
2022-12-18T14:34:18.091Z,25.42
2022-12-18T14:37:00.881Z,21.92
2022-12-18T14:39:27.658Z,25.90
2022-12-18T14:41:55.826Z,29.48
2022-12-18T14:44:22.679Z,25.45
2022-12-18T14:46:50.697Z,28.85
2022-12-18T14:49:21.102Z,40.55
2022-12-18T14:51:56.357Z,35.92
2022-12-18T14:54:24.240Z,34.83
2022-12-18T14:57:02.091Z,25.02
2022-12-18T14:59:29.656Z,27.73
2022-12-18T15:02:06.157Z,26.08
2022-12-18T15:04:38.750Z,30.20
2022-12-18T15:07:19.325Z,23.38
2022-12-18T15:10:02.289Z,21.55
2022-12-18T15:12:42.863Z,22.00
2022-12-18T15:15:23.436Z,33.55
2022-12-18T15:17:50.179Z,32.55
2022-12-18T15:20:19.962Z,21.30
2022-12-18T15:22:48.407Z,23.25
2022-12-18T15:25:41.395Z,35.97
2022-12-18T15:28:20.909Z,23.20
2022-12-18T15:31:00.606Z,28.65
2022-12-18T15:33:30.928Z,22.88
2022-12-18T15:36:01.513Z,22.23
2022-12-18T15:38:28.310Z,18.65
2022-12-18T15:40:55.637Z,20.15
2022-12-18T15:43:35.066Z,34.72
2022-12-18T15:46:08.929Z,23.70
2022-12-18T15:48:36.936Z,25.17
2022-12-18T15:51:03.795Z,19.55
2022-12-18T15:53:32.139Z,25.52
2022-12-18T15:56:12.936Z,32.03
2022-12-18T15:58:39.718Z,27.50
2022-12-18T16:01:06.455Z,40.55
2022-12-18T16:03:33.184Z,24.60
2022-12-18T16:06:03.100Z,21.13
2022-12-18T16:08:31.145Z,23.73
2022-12-18T16:10:58.803Z,30.27
2022-12-18T16:13:25.623Z,26.50
2022-12-18T16:15:52.279Z,19.35
2022-12-18T16:18:19.095Z,25.50
2022-12-18T16:20:46.309Z,41.47
2022-12-18T16:23:12.901Z,38.55
2022-12-18T16:25:39.647Z,23.35
2022-12-18T16:28:06.427Z,30.65
2022-12-18T16:30:38.329Z,32.28
2022-12-18T16:33:05.927Z,30.25
2022-12-18T16:35:34.684Z,19.02
2022-12-18T16:38:01.369Z,18.08
2022-12-18T16:40:28.186Z,23.88
2022-12-18T16:42:54.881Z,27.20
2022-12-18T16:45:21.655Z,25.95
2022-12-18T16:47:48.557Z,22.13
2022-12-18T16:50:15.330Z,32.88
2022-12-18T16:52:42.171Z,25.75
2022-12-18T16:55:09.215Z,20.23
2022-12-18T16:57:35.918Z,24.85
2022-12-18T17:00:05.609Z,21.65
2022-12-18T17:02:33.181Z,22.92
2022-12-18T17:05:00.089Z,30.95
2022-12-18T17:07:28.252Z,29.17
2022-12-18T17:09:55.081Z,26.73
2022-12-18T17:12:22.034Z,27.33
2022-12-18T17:14:49.332Z,23.77
2022-12-18T17:17:21.325Z,31.83
2022-12-18T17:19:49.565Z,30.23
2022-12-18T17:22:17.602Z,22.77
2022-12-18T17:24:44.416Z,19.85
2022-12-18T17:27:11.014Z,23.13
2022-12-18T17:29:43.702Z,29.98
2022-12-18T17:32:13.470Z,32.42
2022-12-18T17:34:40.671Z,34.30
2022-12-18T17:37:07.520Z,27.65
2022-12-18T17:39:34.404Z,26.73
2022-12-18T17:42:02.563Z,26.67
2022-12-18T17:44:29.224Z,27.23
2022-12-18T17:46:56.644Z,18.00
2022-12-18T17:49:23.525Z,20.92
2022-12-18T17:51:50.292Z,21.63
2022-12-18T17:54:17.096Z,18.92
2022-12-18T17:56:44.042Z,10.40
2022-12-18T17:59:11.442Z,17.50
2022-12-18T18:01:44.131Z,17.40
2022-12-18T18:04:12.146Z,29.17
2022-12-18T18:06:39.537Z,21.77
2022-12-18T18:09:08.634Z,19.75
2022-12-18T18:11:59.955Z,56.40
2022-12-18T18:14:27.648Z,31.25
2022-12-18T18:16:54.817Z,19.67
2022-12-18T18:19:24.740Z,13.68
2022-12-18T18:21:52.504Z,30.60
2022-12-18T18:24:20.752Z,27.50
2022-12-18T18:26:47.719Z,29.08
2022-12-18T18:29:18.903Z,25.58
2022-12-18T18:31:46.084Z,21.27
2022-12-18T18:34:16.648Z,21.20
2022-12-18T18:36:44.202Z,19.17
2022-12-18T18:39:11.045Z,26.65
2022-12-18T18:41:37.834Z,15.48
2022-12-18T18:44:04.834Z,19.27
2022-12-18T18:46:31.636Z,17.58
2022-12-18T18:49:02.392Z,23.88
2022-12-18T18:51:34.626Z,10.52
2022-12-18T18:54:01.865Z,19.33
2022-12-18T18:59:15.590Z,28.83
2022-12-18T19:01:42.553Z,24.40
2022-12-18T19:04:09.356Z,18.75
2022-12-18T19:06:36.208Z,17.10
2022-12-18T19:09:03.356Z,15.52
2022-12-18T19:11:44.261Z,10.35
2022-12-18T19:14:12.712Z,17.60
2022-12-18T19:16:42.875Z,15.15
2022-12-18T19:19:12.042Z,15.68
2022-12-18T19:21:39.091Z,16.83
2022-12-18T19:24:06.271Z,13.10
2022-12-18T19:26:33.079Z,13.15
2022-12-18T19:29:04.673Z,17.95
2022-12-18T19:31:35.693Z,13.48
2022-12-18T19:34:04.125Z,18.63
2022-12-18T19:36:31.305Z,16.85
2022-12-18T19:38:59.976Z,10.15
2022-12-18T19:41:29.044Z,17.25
2022-12-18T19:43:57.021Z,16.48
2022-12-18T19:46:24.286Z,19.73
2022-12-18T19:48:51.701Z,23.02
2022-12-18T19:51:19.971Z,16.25
2022-12-18T19:53:47.683Z,22.42
2022-12-18T19:56:19.554Z,25.42
2022-12-18T19:58:47.031Z,24.48
2022-12-18T20:01:16.742Z,22.52
2022-12-18T20:03:44.448Z,23.35
2022-12-18T20:06:33.505Z,22.90
2022-12-18T20:09:02.786Z,27.58
2022-12-18T20:11:30.517Z,23.45
2022-12-18T20:13:57.881Z,22.63
2022-12-18T20:16:28.635Z,24.65
2022-12-18T20:18:58.550Z,19.15
2022-12-18T20:21:25.452Z,26.70
2022-12-18T20:23:52.776Z,25.70
2022-12-18T20:26:19.607Z,19.42
2022-12-18T20:28:46.418Z,17.30
2022-12-18T20:31:14.174Z,21.00
2022-12-18T20:33:42.236Z,16.88
2022-12-18T20:36:21.269Z,20.73
2022-12-18T20:38:55.715Z,18.75
2022-12-18T20:43:54.838Z,21.65
2022-12-18T20:46:23.146Z,14.27
2022-12-18T20:48:50.137Z,23.77
2022-12-18T20:51:18.458Z,13.48
2022-12-18T20:53:49.248Z,15.32
2022-12-18T20:56:24.660Z,19.75
2022-12-18T20:58:55.116Z,18.33
2022-12-18T21:01:25.034Z,19.60
2022-12-18T21:04:07.730Z,16.17
2022-12-18T21:06:43.819Z,15.30
2022-12-18T21:09:13.176Z,14.15
2022-12-18T21:11:53.726Z,17.80
2022-12-18T21:14:21.697Z,18.95
2022-12-18T21:16:48.950Z,11.95
2022-12-18T21:19:17.619Z,14.88
2022-12-18T21:21:44.830Z,12.00
2022-12-18T21:24:11.876Z,9.20
2022-12-18T21:26:45.242Z,11.57
2022-12-18T21:29:14.474Z,13.95
2022-12-18T21:31:41.366Z,15.48
2022-12-18T21:34:08.125Z,14.43
2022-12-18T21:36:35.564Z,14.85
2022-12-18T21:39:02.444Z,20.92
2022-12-18T21:41:43.268Z,16.35
2022-12-18T21:44:11.904Z,14.10
2022-12-18T21:46:40.627Z,13.82
2022-12-18T21:49:08.351Z,15.27
2022-12-18T21:51:35.583Z,13.02
2022-12-18T21:54:02.382Z,14.60
2022-12-18T21:56:55.253Z,14.23
2022-12-18T21:59:23.020Z,11.27
2022-12-18T22:01:51.105Z,15.05
2022-12-18T22:04:19.112Z,16.23
2022-12-18T22:06:46.132Z,16.77
2022-12-18T22:09:17.136Z,15.70
2022-12-18T22:11:44.184Z,11.98
2022-12-18T22:14:14.821Z,12.07
2022-12-18T22:16:42.131Z,12.43
2022-12-18T22:19:12.685Z,14.65
2022-12-18T22:21:42.593Z,8.27
2022-12-18T22:24:17.079Z,16.75
2022-12-18T22:26:43.820Z,13.88
2022-12-18T22:29:42.654Z,12.70
2022-12-18T22:32:11.246Z,12.15
2022-12-18T22:34:40.263Z,14.50
2022-12-18T22:37:06.949Z,15.82
2022-12-18T22:39:33.768Z,13.52
2022-12-18T22:42:00.523Z,12.25
2022-12-18T22:44:27.722Z,14.23
2022-12-18T22:47:06.613Z,9.98
2022-12-18T22:49:35.099Z,9.38
2022-12-18T22:52:02.000Z,9.57
2022-12-18T22:54:28.629Z,10.15
2022-12-18T22:56:57.508Z,11.65
2022-12-18T22:59:24.370Z,11.73
2022-12-18T23:01:58.982Z,12.15
2022-12-18T23:04:35.048Z,10.88
2022-12-18T23:07:04.537Z,11.90
2022-12-18T23:09:31.501Z,11.88
2022-12-18T23:11:58.120Z,15.18
2022-12-18T23:14:24.839Z,12.82
2022-12-18T23:16:52.277Z,11.52
2022-12-18T23:19:20.065Z,14.68
2022-12-18T23:21:46.761Z,12.90
2022-12-18T23:24:13.703Z,13.00
2022-12-18T23:26:40.387Z,14.40
2022-12-18T23:29:07.438Z,11.38
2022-12-18T23:31:35.203Z,10.63
2022-12-18T23:34:02.742Z,13.52
2022-12-18T23:36:30.241Z,12.32
2022-12-18T23:39:00.772Z,12.70
2022-12-18T23:41:30.132Z,12.27
2022-12-18T23:43:57.650Z,12.75
2022-12-18T23:46:25.650Z,10.45
2022-12-18T23:48:52.409Z,9.07
2022-12-18T23:51:20.141Z,11.43
2022-12-18T23:53:46.948Z,10.07
2022-12-18T23:56:15.084Z,11.85
2022-12-18T23:58:42.388Z,11.70
